sensor_id;sensor_type;location;lat;lon;timestamp;temperature;humidity
8872;DHT22;4472;52.092;9.820;2023-08-30T00:02:11;12.50;99.90
8872;DHT22;4472;52.092;9.820;2023-08-30T00:07:47;12.30;99.90
8872;DHT22;4472;52.092;9.820;2023-08-30T00:10:34;12.30;99.90
8872;DHT22;4472;52.092;9.820;2023-08-30T00:13:23;12.20;99.90
8872;DHT22;4472;52.092;9.820;2023-08-30T00:16:10;12.10;99.90
8872;DHT22;4472;52.092;9.820;2023-08-30T00:18:58;12.10;99.90
8872;DHT22;4472;52.092;9.820;2023-08-30T00:21:46;12.20;99.90
8872;DHT22;4472;52.092;9.820;2023-08-30T00:24:34;12.00;99.90
8872;DHT22;4472;52.092;9.820;2023-08-30T00:27:22;12.00;99.90
8872;DHT22;4472;52.092;9.820;2023-08-30T00:30:10;12.10;99.90
8872;DHT22;4472;52.092;9.820;2023-08-30T00:32:57;12.10;99.90
8872;DHT22;4472;52.092;9.820;2023-08-30T00:35:44;12.20;99.90
8872;DHT22;4472;52.092;9.820;2023-08-30T00:38:33;12.30;99.90
8872;DHT22;4472;52.092;9.820;2023-08-30T00:41:21;12.20;99.90
8872;DHT22;4472;52.092;9.820;2023-08-30T00:44:09;12.10;99.90
8872;DHT22;4472;52.092;9.820;2023-08-30T00:46:56;12.10;99.90
8872;DHT22;4472;52.092;9.820;2023-08-30T00:49:43;12.10;99.90
8872;DHT22;4472;52.092;9.820;2023-08-30T00:52:30;12.10;99.90
8872;DHT22;4472;52.092;9.820;2023-08-30T00:55:18;12.20;99.90
8872;DHT22;4472;52.092;9.820;2023-08-30T00:58:07;12.10;99.90
8872;DHT22;4472;52.092;9.820;2023-08-30T01:00:55;12.10;99.90
8872;DHT22;4472;52.092;9.820;2023-08-30T01:03:43;12.00;99.90
8872;DHT22;4472;52.092;9.820;2023-08-30T01:09:18;12.00;99.90
8872;DHT22;4472;52.092;9.820;2023-08-30T01:12:10;12.00;99.90
8872;DHT22;4472;52.092;9.820;2023-08-30T01:15:07;12.00;99.90
8872;DHT22;4472;52.092;9.820;2023-08-30T01:17:56;12.00;99.90
8872;DHT22;4472;52.092;9.820;2023-08-30T01:20:45;12.00;99.90
8872;DHT22;4472;52.092;9.820;2023-08-30T01:23:42;12.00;99.90
8872;DHT22;4472;52.092;9.820;2023-08-30T01:26:41;12.00;99.90
8872;DHT22;4472;52.092;9.820;2023-08-30T01:29:31;12.00;99.90
8872;DHT22;4472;52.092;9.820;2023-08-30T01:32:19;12.00;99.90
8872;DHT22;4472;52.092;9.820;2023-08-30T01:38:51;11.80;99.90
8872;DHT22;4472;52.092;9.820;2023-08-30T01:41:40;11.80;99.90
8872;DHT22;4472;52.092;9.820;2023-08-30T01:44:28;11.70;99.90
8872;DHT22;4472;52.092;9.820;2023-08-30T01:47:17;11.70;99.90
8872;DHT22;4472;52.092;9.820;2023-08-30T01:50:06;11.70;99.90
8872;DHT22;4472;52.092;9.820;2023-08-30T01:52:54;11.60;99.90
8872;DHT22;4472;52.092;9.820;2023-08-30T01:55:43;11.50;99.90
8872;DHT22;4472;52.092;9.820;2023-08-30T01:58:30;11.50;99.90
8872;DHT22;4472;52.092;9.820;2023-08-30T02:01:17;11.40;99.90
8872;DHT22;4472;52.092;9.820;2023-08-30T02:04:06;11.40;99.90
8872;DHT22;4472;52.092;9.820;2023-08-30T02:06:57;11.40;99.90
8872;DHT22;4472;52.092;9.820;2023-08-30T02:09:51;11.40;99.90
8872;DHT22;4472;52.092;9.820;2023-08-30T02:12:44;11.50;99.90
8872;DHT22;4472;52.092;9.820;2023-08-30T02:15:34;11.40;99.90
8872;DHT22;4472;52.092;9.820;2023-08-30T02:18:22;11.40;99.90
8872;DHT22;4472;52.092;9.820;2023-08-30T02:21:11;11.40;99.90
8872;DHT22;4472;52.092;9.820;2023-08-30T02:23:58;11.50;99.90
8872;DHT22;4472;52.092;9.820;2023-08-30T02:26:46;11.40;99.90
8872;DHT22;4472;52.092;9.820;2023-08-30T02:29:33;11.40;99.90
8872;DHT22;4472;52.092;9.820;2023-08-30T02:32:20;11.50;99.90
8872;DHT22;4472;52.092;9.820;2023-08-30T02:35:08;11.40;99.90
8872;DHT22;4472;52.092;9.820;2023-08-30T02:37:56;11.40;99.90
8872;DHT22;4472;52.092;9.820;2023-08-30T02:40:44;11.20;99.90
8872;DHT22;4472;52.092;9.820;2023-08-30T02:43:31;11.20;99.90
8872;DHT22;4472;52.092;9.820;2023-08-30T02:46:18;11.10;99.90
8872;DHT22;4472;52.092;9.820;2023-08-30T02:49:05;11.10;99.90
8872;DHT22;4472;52.092;9.820;2023-08-30T02:51:52;11.00;99.90
8872;DHT22;4472;52.092;9.820;2023-08-30T02:54:41;11.10;99.90
8872;DHT22;4472;52.092;9.820;2023-08-30T02:57:28;11.00;99.90
8872;DHT22;4472;52.092;9.820;2023-08-30T03:00:16;11.10;99.90
8872;DHT22;4472;52.092;9.820;2023-08-30T03:03:03;11.00;99.90
8872;DHT22;4472;52.092;9.820;2023-08-30T03:05:50;11.00;99.90
8872;DHT22;4472;52.092;9.820;2023-08-30T03:08:38;11.10;99.90
8872;DHT22;4472;52.092;9.820;2023-08-30T03:11:26;11.20;99.90
8872;DHT22;4472;52.092;9.820;2023-08-30T03:14:13;11.30;99.90
8872;DHT22;4472;52.092;9.820;2023-08-30T03:17:02;11.20;99.90
8872;DHT22;4472;52.092;9.820;2023-08-30T03:19:51;11.50;99.90
8872;DHT22;4472;52.092;9.820;2023-08-30T03:22:38;11.40;99.90
8872;DHT22;4472;52.092;9.820;2023-08-30T03:25:28;11.50;99.90
8872;DHT22;4472;52.092;9.820;2023-08-30T03:28:17;12.00;99.90
8872;DHT22;4472;52.092;9.820;2023-08-30T03:31:12;11.80;99.90
8872;DHT22;4472;52.092;9.820;2023-08-30T03:33:59;11.60;99.90
8872;DHT22;4472;52.092;9.820;2023-08-30T03:36:46;13.00;99.90
8872;DHT22;4472;52.092;9.820;2023-08-30T03:39:39;12.00;99.90
8872;DHT22;4472;52.092;9.820;2023-08-30T03:42:27;14.90;99.90
8872;DHT22;4472;52.092;9.820;2023-08-30T03:45:15;12.40;99.90
8872;DHT22;4472;52.092;9.820;2023-08-30T03:48:03;12.30;99.90
8872;DHT22;4472;52.092;9.820;2023-08-30T03:50:51;12.30;99.90
8872;DHT22;4472;52.092;9.820;2023-08-30T03:53:38;12.20;99.90
8872;DHT22;4472;52.092;9.820;2023-08-30T03:56:25;11.80;99.90
8872;DHT22;4472;52.092;9.820;2023-08-30T03:59:12;12.20;99.90
8872;DHT22;4472;52.092;9.820;2023-08-30T04:04:48;12.00;99.90
8872;DHT22;4472;52.092;9.820;2023-08-30T04:07:36;11.80;99.90
8872;DHT22;4472;52.092;9.820;2023-08-30T04:10:23;11.90;99.90
8872;DHT22;4472;52.092;9.820;2023-08-30T04:13:10;11.80;99.90
8872;DHT22;4472;52.092;9.820;2023-08-30T04:15:58;12.60;99.90
8872;DHT22;4472;52.092;9.820;2023-08-30T04:18:46;12.00;99.90
8872;DHT22;4472;52.092;9.820;2023-08-30T04:21:33;12.10;99.90
8872;DHT22;4472;52.092;9.820;2023-08-30T04:24:21;12.70;99.90
8872;DHT22;4472;52.092;9.820;2023-08-30T04:27:08;11.70;99.90
8872;DHT22;4472;52.092;9.820;2023-08-30T04:32:43;11.80;99.90
8872;DHT22;4472;52.092;9.820;2023-08-30T04:35:32;12.00;99.90
8872;DHT22;4472;52.092;9.820;2023-08-30T04:38:19;11.70;99.90
8872;DHT22;4472;52.092;9.820;2023-08-30T04:46:41;12.00;99.90
8872;DHT22;4472;52.092;9.820;2023-08-30T04:49:28;12.20;99.90
8872;DHT22;4472;52.092;9.820;2023-08-30T04:52:17;11.80;99.90
8872;DHT22;4472;52.092;9.820;2023-08-30T04:55:05;12.10;99.90
8872;DHT22;4472;52.092;9.820;2023-08-30T05:00:40;12.10;99.90
8872;DHT22;4472;52.092;9.820;2023-08-30T05:03:27;12.30;99.90
8872;DHT22;4472;52.092;9.820;2023-08-30T05:06:15;12.40;99.90
8872;DHT22;4472;52.092;9.820;2023-08-30T05:09:04;12.70;99.90
8872;DHT22;4472;52.092;9.820;2023-08-30T05:11:52;12.90;99.90
8872;DHT22;4472;52.092;9.820;2023-08-30T05:14:39;12.80;99.90
8872;DHT22;4472;52.092;9.820;2023-08-30T05:17:27;13.30;99.90
8872;DHT22;4472;52.092;9.820;2023-08-30T05:20:15;13.20;99.90
8872;DHT22;4472;52.092;9.820;2023-08-30T05:23:02;13.30;99.90
8872;DHT22;4472;52.092;9.820;2023-08-30T05:25:51;13.60;99.90
8872;DHT22;4472;52.092;9.820;2023-08-30T05:28:38;13.50;99.90
8872;DHT22;4472;52.092;9.820;2023-08-30T05:31:25;13.90;99.90
8872;DHT22;4472;52.092;9.820;2023-08-30T05:34:13;13.70;99.90
8872;DHT22;4472;52.092;9.820;2023-08-30T05:37:00;13.90;99.90
8872;DHT22;4472;52.092;9.820;2023-08-30T05:39:47;13.80;99.90
8872;DHT22;4472;52.092;9.820;2023-08-30T05:42:35;14.00;99.90
8872;DHT22;4472;52.092;9.820;2023-08-30T05:45:23;14.00;99.90
8872;DHT22;4472;52.092;9.820;2023-08-30T05:48:10;14.20;99.90
8872;DHT22;4472;52.092;9.820;2023-08-30T05:50:57;14.10;99.90
8872;DHT22;4472;52.092;9.820;2023-08-30T05:53:44;14.20;99.90
8872;DHT22;4472;52.092;9.820;2023-08-30T05:56:31;14.10;99.90
8872;DHT22;4472;52.092;9.820;2023-08-30T05:59:20;14.50;99.90
8872;DHT22;4472;52.092;9.820;2023-08-30T06:02:07;14.30;99.90
8872;DHT22;4472;52.092;9.820;2023-08-30T06:04:54;14.50;99.90
8872;DHT22;4472;52.092;9.820;2023-08-30T06:10:29;14.30;99.90
8872;DHT22;4472;52.092;9.820;2023-08-30T06:13:16;14.50;99.90
8872;DHT22;4472;52.092;9.820;2023-08-30T06:16:05;14.50;99.90
8872;DHT22;4472;52.092;9.820;2023-08-30T06:18:52;14.60;99.90
8872;DHT22;4472;52.092;9.820;2023-08-30T06:21:39;14.90;99.90
8872;DHT22;4472;52.092;9.820;2023-08-30T06:27:14;14.90;99.90
8872;DHT22;4472;52.092;9.820;2023-08-30T06:30:01;14.90;99.90
8872;DHT22;4472;52.092;9.820;2023-08-30T06:32:50;15.00;99.90
8872;DHT22;4472;52.092;9.820;2023-08-30T06:35:38;15.20;99.90
8872;DHT22;4472;52.092;9.820;2023-08-30T06:38:25;15.20;99.90
8872;DHT22;4472;52.092;9.820;2023-08-30T06:41:12;15.20;99.90
8872;DHT22;4472;52.092;9.820;2023-08-30T06:43:59;15.30;99.90
8872;DHT22;4472;52.092;9.820;2023-08-30T06:46:46;15.40;99.90
8872;DHT22;4472;52.092;9.820;2023-08-30T06:49:35;15.40;99.90
8872;DHT22;4472;52.092;9.820;2023-08-30T06:52:22;15.40;99.90
8872;DHT22;4472;52.092;9.820;2023-08-30T06:55:09;15.40;99.90
8872;DHT22;4472;52.092;9.820;2023-08-30T06:57:56;15.40;99.90
8872;DHT22;4472;52.092;9.820;2023-08-30T07:00:43;15.30;99.90
8872;DHT22;4472;52.092;9.820;2023-08-30T07:03:31;15.60;99.90
8872;DHT22;4472;52.092;9.820;2023-08-30T07:06:20;15.50;99.90
8872;DHT22;4472;52.092;9.820;2023-08-30T07:09:07;15.30;99.90
8872;DHT22;4472;52.092;9.820;2023-08-30T07:11:54;15.50;99.90
8872;DHT22;4472;52.092;9.820;2023-08-30T07:14:41;15.50;99.90
8872;DHT22;4472;52.092;9.820;2023-08-30T07:17:28;15.50;99.90
8872;DHT22;4472;52.092;9.820;2023-08-30T07:20:16;15.60;99.90
8872;DHT22;4472;52.092;9.820;2023-08-30T07:23:05;15.70;99.90
8872;DHT22;4472;52.092;9.820;2023-08-30T07:25:52;16.00;99.90
8872;DHT22;4472;52.092;9.820;2023-08-30T07:28:39;15.80;99.90
8872;DHT22;4472;52.092;9.820;2023-08-30T07:31:27;16.00;99.90
8872;DHT22;4472;52.092;9.820;2023-08-30T07:34:14;16.00;99.90
8872;DHT22;4472;52.092;9.820;2023-08-30T07:37:01;16.40;99.90
8872;DHT22;4472;52.092;9.820;2023-08-30T07:39:51;16.50;99.90
8872;DHT22;4472;52.092;9.820;2023-08-30T07:42:38;17.20;99.90
8872;DHT22;4472;52.092;9.820;2023-08-30T07:45:26;16.80;99.90
8872;DHT22;4472;52.092;9.820;2023-08-30T07:48:13;16.90;99.90
8872;DHT22;4472;52.092;9.820;2023-08-30T07:51:00;16.90;99.90
8872;DHT22;4472;52.092;9.820;2023-08-30T07:53:47;17.00;99.90
8872;DHT22;4472;52.092;9.820;2023-08-30T07:56:36;17.00;99.90
8872;DHT22;4472;52.092;9.820;2023-08-30T07:59:23;17.00;99.90
8872;DHT22;4472;52.092;9.820;2023-08-30T08:02:10;17.60;99.90
8872;DHT22;4472;52.092;9.820;2023-08-30T08:04:57;17.20;99.90
8872;DHT22;4472;52.092;9.820;2023-08-30T08:07:45;17.10;99.90
8872;DHT22;4472;52.092;9.820;2023-08-30T08:10:32;17.30;99.90
8872;DHT22;4472;52.092;9.820;2023-08-30T08:13:21;17.20;99.90
8872;DHT22;4472;52.092;9.820;2023-08-30T08:16:08;17.30;99.90
8872;DHT22;4472;52.092;9.820;2023-08-30T08:18:55;17.30;99.90
8872;DHT22;4472;52.092;9.820;2023-08-30T08:21:45;17.30;99.90
8872;DHT22;4472;52.092;9.820;2023-08-30T08:24:32;17.30;99.90
8872;DHT22;4472;52.092;9.820;2023-08-30T08:27:19;17.30;99.90
8872;DHT22;4472;52.092;9.820;2023-08-30T08:30:09;17.30;99.90
8872;DHT22;4472;52.092;9.820;2023-08-30T08:32:57;17.40;99.90
8872;DHT22;4472;52.092;9.820;2023-08-30T08:35:44;17.30;99.90
8872;DHT22;4472;52.092;9.820;2023-08-30T08:38:32;17.50;99.90
8872;DHT22;4472;52.092;9.820;2023-08-30T08:41:19;17.60;99.90
8872;DHT22;4472;52.092;9.820;2023-08-30T08:44:06;17.60;99.90
8872;DHT22;4472;52.092;9.820;2023-08-30T08:46:55;17.80;99.90
8872;DHT22;4472;52.092;9.820;2023-08-30T08:49:43;17.90;99.90
8872;DHT22;4472;52.092;9.820;2023-08-30T08:52:31;18.00;99.90
8872;DHT22;4472;52.092;9.820;2023-08-30T08:55:19;18.10;99.90
8872;DHT22;4472;52.092;9.820;2023-08-30T08:58:06;18.10;99.90
8872;DHT22;4472;52.092;9.820;2023-08-30T09:00:54;18.20;99.90
8872;DHT22;4472;52.092;9.820;2023-08-30T09:03:43;18.60;99.90
8872;DHT22;4472;52.092;9.820;2023-08-30T09:06:30;18.40;99.90
8872;DHT22;4472;52.092;9.820;2023-08-30T09:09:17;18.40;99.90
8872;DHT22;4472;52.092;9.820;2023-08-30T09:12:04;18.70;99.90
8872;DHT22;4472;52.092;9.820;2023-08-30T09:14:55;18.80;99.90
8872;DHT22;4472;52.092;9.820;2023-08-30T09:17:43;19.00;99.90
8872;DHT22;4472;52.092;9.820;2023-08-30T09:20:31;19.40;99.90
8872;DHT22;4472;52.092;9.820;2023-08-30T09:23:19;19.50;99.90
8872;DHT22;4472;52.092;9.820;2023-08-30T09:26:07;19.60;99.90
8872;DHT22;4472;52.092;9.820;2023-08-30T09:28:55;19.70;99.90
8872;DHT22;4472;52.092;9.820;2023-08-30T09:31:42;19.80;99.90
8872;DHT22;4472;52.092;9.820;2023-08-30T09:34:29;19.90;99.90
8872;DHT22;4472;52.092;9.820;2023-08-30T09:37:21;19.90;99.90
8872;DHT22;4472;52.092;9.820;2023-08-30T09:40:09;20.00;99.90
8872;DHT22;4472;52.092;9.820;2023-08-30T09:42:58;19.90;99.90
8872;DHT22;4472;52.092;9.820;2023-08-30T09:45:46;19.90;99.90
8872;DHT22;4472;52.092;9.820;2023-08-30T09:48:34;20.10;99.90
8872;DHT22;4472;52.092;9.820;2023-08-30T09:51:24;20.10;99.90
8872;DHT22;4472;52.092;9.820;2023-08-30T09:54:16;20.10;99.90
8872;DHT22;4472;52.092;9.820;2023-08-30T09:57:04;20.10;99.90
8872;DHT22;4472;52.092;9.820;2023-08-30T09:59:52;20.10;99.90
8872;DHT22;4472;52.092;9.820;2023-08-30T10:02:42;20.10;99.90
8872;DHT22;4472;52.092;9.820;2023-08-30T10:05:31;20.20;99.90
8872;DHT22;4472;52.092;9.820;2023-08-30T10:08:19;20.10;99.90
8872;DHT22;4472;52.092;9.820;2023-08-30T10:11:10;20.10;99.90
8872;DHT22;4472;52.092;9.820;2023-08-30T10:13:59;20.20;99.90
8872;DHT22;4472;52.092;9.820;2023-08-30T10:16:48;20.20;99.90
8872;DHT22;4472;52.092;9.820;2023-08-30T10:19:37;20.30;99.90
8872;DHT22;4472;52.092;9.820;2023-08-30T10:22:26;20.40;99.90
8872;DHT22;4472;52.092;9.820;2023-08-30T10:25:16;20.50;99.90
8872;DHT22;4472;52.092;9.820;2023-08-30T10:28:07;20.50;99.90
8872;DHT22;4472;52.092;9.820;2023-08-30T10:30:55;20.70;99.90
8872;DHT22;4472;52.092;9.820;2023-08-30T10:33:48;20.80;99.90
8872;DHT22;4472;52.092;9.820;2023-08-30T10:36:36;20.80;99.90
8872;DHT22;4472;52.092;9.820;2023-08-30T10:39:32;20.80;99.90
8872;DHT22;4472;52.092;9.820;2023-08-30T10:42:22;20.80;99.90
8872;DHT22;4472;52.092;9.820;2023-08-30T10:45:11;20.60;99.90
8872;DHT22;4472;52.092;9.820;2023-08-30T10:47:59;20.60;99.90
8872;DHT22;4472;52.092;9.820;2023-08-30T10:50:46;20.50;99.90
8872;DHT22;4472;52.092;9.820;2023-08-30T10:53:34;20.70;99.90
8872;DHT22;4472;52.092;9.820;2023-08-30T10:56:27;20.80;99.90
8872;DHT22;4472;52.092;9.820;2023-08-30T10:59:18;20.90;99.90
8872;DHT22;4472;52.092;9.820;2023-08-30T11:02:06;21.00;99.90
8872;DHT22;4472;52.092;9.820;2023-08-30T11:04:54;21.00;99.90
8872;DHT22;4472;52.092;9.820;2023-08-30T11:07:42;20.80;99.90
8872;DHT22;4472;52.092;9.820;2023-08-30T11:10:30;20.70;99.90
8872;DHT22;4472;52.092;9.820;2023-08-30T11:13:17;20.60;99.90
8872;DHT22;4472;52.092;9.820;2023-08-30T11:16:04;20.50;99.90
8872;DHT22;4472;52.092;9.820;2023-08-30T11:18:52;20.40;99.90
8872;DHT22;4472;52.092;9.820;2023-08-30T11:21:42;20.40;99.90
8872;DHT22;4472;52.092;9.820;2023-08-30T11:24:30;20.30;99.90
8872;DHT22;4472;52.092;9.820;2023-08-30T11:27:17;20.30;99.90
8872;DHT22;4472;52.092;9.820;2023-08-30T11:30:06;19.60;99.90
8872;DHT22;4472;52.092;9.820;2023-08-30T11:32:54;20.40;99.90
8872;DHT22;4472;52.092;9.820;2023-08-30T11:35:42;20.50;99.90
8872;DHT22;4472;52.092;9.820;2023-08-30T11:38:30;20.60;99.90
8872;DHT22;4472;52.092;9.820;2023-08-30T11:41:20;20.70;99.90
8872;DHT22;4472;52.092;9.820;2023-08-30T11:44:08;20.70;99.90
8872;DHT22;4472;52.092;9.820;2023-08-30T11:46:58;20.70;99.90
8872;DHT22;4472;52.092;9.820;2023-08-30T11:49:46;20.70;99.90
8872;DHT22;4472;52.092;9.820;2023-08-30T11:52:35;20.70;99.90
8872;DHT22;4472;52.092;9.820;2023-08-30T11:55:24;20.80;99.90
8872;DHT22;4472;52.092;9.820;2023-08-30T11:58:13;20.80;99.90
8872;DHT22;4472;52.092;9.820;2023-08-30T12:01:00;20.80;99.90
8872;DHT22;4472;52.092;9.820;2023-08-30T12:03:48;20.70;99.90
8872;DHT22;4472;52.092;9.820;2023-08-30T12:06:36;20.60;99.90
8872;DHT22;4472;52.092;9.820;2023-08-30T12:09:30;20.50;99.90
8872;DHT22;4472;52.092;9.820;2023-08-30T12:12:18;20.60;99.90
8872;DHT22;4472;52.092;9.820;2023-08-30T12:15:08;20.70;99.90
8872;DHT22;4472;52.092;9.820;2023-08-30T12:17:56;20.90;99.90
8872;DHT22;4472;52.092;9.820;2023-08-30T12:20:53;21.00;99.90
8872;DHT22;4472;52.092;9.820;2023-08-30T12:23:40;21.10;99.90
8872;DHT22;4472;52.092;9.820;2023-08-30T12:26:32;21.10;99.90
8872;DHT22;4472;52.092;9.820;2023-08-30T12:29:20;21.20;99.90
8872;DHT22;4472;52.092;9.820;2023-08-30T12:32:07;21.20;99.90
8872;DHT22;4472;52.092;9.820;2023-08-30T12:34:54;21.40;99.90
8872;DHT22;4472;52.092;9.820;2023-08-30T12:37:41;21.20;99.90
8872;DHT22;4472;52.092;9.820;2023-08-30T12:40:28;21.50;99.90
8872;DHT22;4472;52.092;9.820;2023-08-30T12:43:17;21.60;99.90
8872;DHT22;4472;52.092;9.820;2023-08-30T12:46:08;21.80;99.90
8872;DHT22;4472;52.092;9.820;2023-08-30T12:48:55;21.80;99.90
8872;DHT22;4472;52.092;9.820;2023-08-30T12:51:42;21.70;99.90
8872;DHT22;4472;52.092;9.820;2023-08-30T12:54:30;21.50;99.90
8872;DHT22;4472;52.092;9.820;2023-08-30T12:57:17;21.60;99.90
8872;DHT22;4472;52.092;9.820;2023-08-30T13:00:07;21.60;99.90
8872;DHT22;4472;52.092;9.820;2023-08-30T13:02:55;21.60;99.90
8872;DHT22;4472;52.092;9.820;2023-08-30T13:05:43;21.50;99.90
8872;DHT22;4472;52.092;9.820;2023-08-30T13:08:30;21.40;99.90
8872;DHT22;4472;52.092;9.820;2023-08-30T13:11:17;21.40;99.90
8872;DHT22;4472;52.092;9.820;2023-08-30T13:14:04;21.30;99.90
8872;DHT22;4472;52.092;9.820;2023-08-30T13:16:53;21.20;99.90
8872;DHT22;4472;52.092;9.820;2023-08-30T13:19:40;21.20;99.90
8872;DHT22;4472;52.092;9.820;2023-08-30T13:22:27;21.20;99.90
8872;DHT22;4472;52.092;9.820;2023-08-30T13:25:15;21.10;99.90
8872;DHT22;4472;52.092;9.820;2023-08-30T13:28:02;21.10;99.90
8872;DHT22;4472;52.092;9.820;2023-08-30T13:30:49;21.10;99.90
8872;DHT22;4472;52.092;9.820;2023-08-30T13:33:38;21.00;99.90
8872;DHT22;4472;52.092;9.820;2023-08-30T13:36:25;21.10;99.90
8872;DHT22;4472;52.092;9.820;2023-08-30T13:39:13;21.10;99.90
8872;DHT22;4472;52.092;9.820;2023-08-30T13:42:00;21.10;99.90
8872;DHT22;4472;52.092;9.820;2023-08-30T13:44:50;21.20;99.90
8872;DHT22;4472;52.092;9.820;2023-08-30T13:47:38;22.30;99.90
8872;DHT22;4472;52.092;9.820;2023-08-30T13:50:26;21.50;99.90
8872;DHT22;4472;52.092;9.820;2023-08-30T13:53:16;21.50;99.90
8872;DHT22;4472;52.092;9.820;2023-08-30T13:56:04;21.40;99.90
8872;DHT22;4472;52.092;9.820;2023-08-30T13:58:51;21.40;99.90
8872;DHT22;4472;52.092;9.820;2023-08-30T14:01:39;21.30;99.90
8872;DHT22;4472;52.092;9.820;2023-08-30T14:04:26;21.30;99.90
8872;DHT22;4472;52.092;9.820;2023-08-30T14:07:16;21.20;99.90
8872;DHT22;4472;52.092;9.820;2023-08-30T14:10:04;21.20;99.90
8872;DHT22;4472;52.092;9.820;2023-08-30T14:12:51;21.10;99.90
8872;DHT22;4472;52.092;9.820;2023-08-30T14:15:38;21.20;99.90
8872;DHT22;4472;52.092;9.820;2023-08-30T14:18:25;21.20;99.90
8872;DHT22;4472;52.092;9.820;2023-08-30T14:21:13;21.30;99.90
8872;DHT22;4472;52.092;9.820;2023-08-30T14:24:01;21.30;99.90
8872;DHT22;4472;52.092;9.820;2023-08-30T14:26:48;21.40;99.90
8872;DHT22;4472;52.092;9.820;2023-08-30T14:29:35;22.10;99.90
8872;DHT22;4472;52.092;9.820;2023-08-30T14:32:23;21.50;99.90
8872;DHT22;4472;52.092;9.820;2023-08-30T14:35:10;21.50;99.90
8872;DHT22;4472;52.092;9.820;2023-08-30T14:37:58;21.50;99.90
8872;DHT22;4472;52.092;9.820;2023-08-30T14:40:55;21.40;99.90
8872;DHT22;4472;52.092;9.820;2023-08-30T14:43:42;21.40;99.90
8872;DHT22;4472;52.092;9.820;2023-08-30T14:46:30;21.40;99.90
8872;DHT22;4472;52.092;9.820;2023-08-30T14:49:17;21.30;99.90
8872;DHT22;4472;52.092;9.820;2023-08-30T14:52:04;21.30;99.90
8872;DHT22;4472;52.092;9.820;2023-08-30T14:54:51;21.30;99.90
8872;DHT22;4472;52.092;9.820;2023-08-30T14:57:39;21.20;99.90
8872;DHT22;4472;52.092;9.820;2023-08-30T15:00:27;21.20;99.90
8872;DHT22;4472;52.092;9.820;2023-08-30T15:03:14;21.10;99.90
8872;DHT22;4472;52.092;9.820;2023-08-30T15:06:01;21.00;99.90
8872;DHT22;4472;52.092;9.820;2023-08-30T15:08:48;20.90;99.90
8872;DHT22;4472;52.092;9.820;2023-08-30T15:11:36;20.80;99.90
8872;DHT22;4472;52.092;9.820;2023-08-30T15:14:24;20.80;99.90
8872;DHT22;4472;52.092;9.820;2023-08-30T15:17:14;20.70;99.90
8872;DHT22;4472;52.092;9.820;2023-08-30T15:20:03;20.60;99.90
8872;DHT22;4472;52.092;9.820;2023-08-30T15:22:51;20.60;99.90
8872;DHT22;4472;52.092;9.820;2023-08-30T15:25:39;20.40;99.90
8872;DHT22;4472;52.092;9.820;2023-08-30T15:28:26;20.30;99.90
8872;DHT22;4472;52.092;9.820;2023-08-30T15:31:15;20.20;99.90
8872;DHT22;4472;52.092;9.820;2023-08-30T15:34:04;20.10;99.90
8872;DHT22;4472;52.092;9.820;2023-08-30T15:36:51;20.00;99.90
8872;DHT22;4472;52.092;9.820;2023-08-30T15:39:39;19.80;99.90
8872;DHT22;4472;52.092;9.820;2023-08-30T15:42:26;19.30;99.90
8872;DHT22;4472;52.092;9.820;2023-08-30T15:45:13;18.80;99.90
8872;DHT22;4472;52.092;9.820;2023-08-30T15:48:02;18.30;99.90
8872;DHT22;4472;52.092;9.820;2023-08-30T15:50:49;18.10;99.90
8872;DHT22;4472;52.092;9.820;2023-08-30T15:53:37;17.90;99.90
8872;DHT22;4472;52.092;9.820;2023-08-30T15:56:26;17.80;99.90
8872;DHT22;4472;52.092;9.820;2023-08-30T15:59:13;17.70;99.90
8872;DHT22;4472;52.092;9.820;2023-08-30T16:02:00;17.60;99.90
8872;DHT22;4472;52.092;9.820;2023-08-30T16:04:49;17.50;99.90
8872;DHT22;4472;52.092;9.820;2023-08-30T16:07:36;17.40;99.90
8872;DHT22;4472;52.092;9.820;2023-08-30T16:10:26;17.30;99.90
8872;DHT22;4472;52.092;9.820;2023-08-30T16:13:13;17.30;99.90
8872;DHT22;4472;52.092;9.820;2023-08-30T16:16:01;17.30;99.90
8872;DHT22;4472;52.092;9.820;2023-08-30T16:18:48;17.20;99.90
8872;DHT22;4472;52.092;9.820;2023-08-30T16:21:36;17.10;99.90
8872;DHT22;4472;52.092;9.820;2023-08-30T16:24:23;17.10;99.90
8872;DHT22;4472;52.092;9.820;2023-08-30T16:27:12;17.10;99.90
8872;DHT22;4472;52.092;9.820;2023-08-30T16:29:59;17.00;99.90
8872;DHT22;4472;52.092;9.820;2023-08-30T16:32:48;17.00;99.90
8872;DHT22;4472;52.092;9.820;2023-08-30T16:35:35;17.00;99.90
8872;DHT22;4472;52.092;9.820;2023-08-30T16:38:24;16.90;99.90
8872;DHT22;4472;52.092;9.820;2023-08-30T16:41:12;16.90;99.90
8872;DHT22;4472;52.092;9.820;2023-08-30T16:43:59;16.80;99.90
8872;DHT22;4472;52.092;9.820;2023-08-30T16:46:46;16.70;99.90
8872;DHT22;4472;52.092;9.820;2023-08-30T16:49:33;16.70;99.90
8872;DHT22;4472;52.092;9.820;2023-08-30T16:52:20;16.70;99.90
8872;DHT22;4472;52.092;9.820;2023-08-30T16:55:09;16.60;99.90
8872;DHT22;4472;52.092;9.820;2023-08-30T16:57:57;16.60;99.90
8872;DHT22;4472;52.092;9.820;2023-08-30T17:00:44;16.60;99.90
8872;DHT22;4472;52.092;9.820;2023-08-30T17:03:31;16.60;99.90
8872;DHT22;4472;52.092;9.820;2023-08-30T17:06:18;16.60;99.90
8872;DHT22;4472;52.092;9.820;2023-08-30T17:09:06;16.50;99.90
8872;DHT22;4472;52.092;9.820;2023-08-30T17:11:54;16.60;99.90
8872;DHT22;4472;52.092;9.820;2023-08-30T17:14:41;16.60;99.90
8872;DHT22;4472;52.092;9.820;2023-08-30T17:17:28;16.60;99.90
8872;DHT22;4472;52.092;9.820;2023-08-30T17:20:16;16.50;99.90
8872;DHT22;4472;52.092;9.820;2023-08-30T17:23:03;16.50;99.90
8872;DHT22;4472;52.092;9.820;2023-08-30T17:25:51;16.50;99.90
8872;DHT22;4472;52.092;9.820;2023-08-30T17:28:39;16.50;99.90
8872;DHT22;4472;52.092;9.820;2023-08-30T17:31:26;16.40;99.90
8872;DHT22;4472;52.092;9.820;2023-08-30T17:34:14;16.30;99.90
8872;DHT22;4472;52.092;9.820;2023-08-30T17:37:01;16.30;99.90
8872;DHT22;4472;52.092;9.820;2023-08-30T17:39:53;16.20;99.90
8872;DHT22;4472;52.092;9.820;2023-08-30T17:42:40;16.10;99.90
8872;DHT22;4472;52.092;9.820;2023-08-30T17:45:31;15.90;99.90
8872;DHT22;4472;52.092;9.820;2023-08-30T17:48:18;15.80;99.90
8872;DHT22;4472;52.092;9.820;2023-08-30T17:51:05;15.70;99.90
8872;DHT22;4472;52.092;9.820;2023-08-30T17:53:53;15.60;99.90
8872;DHT22;4472;52.092;9.820;2023-08-30T17:56:40;15.50;99.90
8872;DHT22;4472;52.092;9.820;2023-08-30T17:59:27;15.40;99.90
8872;DHT22;4472;52.092;9.820;2023-08-30T18:02:15;15.30;99.90
8872;DHT22;4472;52.092;9.820;2023-08-30T18:05:03;15.20;99.90
8872;DHT22;4472;52.092;9.820;2023-08-30T18:07:52;15.20;99.90
8872;DHT22;4472;52.092;9.820;2023-08-30T18:10:41;15.10;99.90
8872;DHT22;4472;52.092;9.820;2023-08-30T18:13:29;15.20;99.90
8872;DHT22;4472;52.092;9.820;2023-08-30T18:16:17;15.30;99.90
8872;DHT22;4472;52.092;9.820;2023-08-30T18:19:07;15.40;99.90
8872;DHT22;4472;52.092;9.820;2023-08-30T18:21:54;15.30;99.90
8872;DHT22;4472;52.092;9.820;2023-08-30T18:24:42;15.20;99.90
8872;DHT22;4472;52.092;9.820;2023-08-30T18:27:29;15.20;99.90
8872;DHT22;4472;52.092;9.820;2023-08-30T18:30:16;15.20;99.90
8872;DHT22;4472;52.092;9.820;2023-08-30T18:33:04;15.20;99.90
8872;DHT22;4472;52.092;9.820;2023-08-30T18:35:52;15.30;99.90
8872;DHT22;4472;52.092;9.820;2023-08-30T18:38:40;15.30;99.90
8872;DHT22;4472;52.092;9.820;2023-08-30T18:41:27;15.30;99.90
8872;DHT22;4472;52.092;9.820;2023-08-30T18:44:14;15.30;99.90
8872;DHT22;4472;52.092;9.820;2023-08-30T18:47:01;15.30;99.90